Time;durP1;ratioP1;P1;durP2;ratioP2;P2;SDS_P1;SDS_P2;PMS_P1;PMS_P2;Temp;Humidity;BMP_temperature;BMP_pressure;BME280_temperature;BME280_humidity;BME280_pressure;Samples;Min_cycle;Max_cycle;Signal;HPM_P1;HPM_P2
2021/05/12 00:01:46;;;;;;;11.43;7.57;;;;;;;;;;5095447;28;20452;-61
2021/05/12 00:04:14;;;;;;;14.80;9.33;;;;;;;;;;5095830;28;20452;-56
2021/05/12 00:06:41;;;;;;;11.20;7.00;;;;;;;;;;5096231;28;20456;-57
2021/05/12 00:09:41;;;;;;;12.07;7.63;;;;;;;;;;5095513;28;20464;-54
2021/05/12 00:12:08;;;;;;;19.63;8.20;;;;;;;;;;5093657;28;20525;-56
2021/05/12 00:14:36;;;;;;;12.40;7.17;;;;;;;;;;5096087;28;20492;-57
2021/05/12 00:17:10;;;;;;;15.83;7.23;;;;;;;;;;5095258;28;20474;-54
2021/05/12 00:19:40;;;;;;;9.60;7.60;;;;;;;;;;5092439;28;20463;-54
2021/05/12 00:22:18;;;;;;;9.50;7.37;;;;;;;;;;5079594;28;20454;-54
2021/05/12 00:24:47;;;;;;;10.87;7.00;;;;;;;;;;5093297;28;20440;-56
2021/05/12 00:27:14;;;;;;;19.63;8.70;;;;;;;;;;5095590;28;20452;-50
2021/05/12 00:29:41;;;;;;;13.00;8.70;;;;;;;;;;5095160;28;20436;-60
2021/05/12 00:32:10;;;;;;;12.07;7.30;;;;;;;;;;5086268;28;20460;-57
2021/05/12 00:34:38;;;;;;;13.13;8.37;;;;;;;;;;5095115;28;20567;-60
2021/05/12 00:40:09;;;;;;;11.13;7.30;;;;;;;;;;5096131;28;20426;-52
2021/05/12 00:42:36;;;;;;;10.10;8.23;;;;;;;;;;5094596;28;20456;-55
2021/05/12 00:45:16;;;;;;;11.73;7.83;;;;;;;;;;5095247;28;20456;-57
2021/05/12 00:47:48;;;;;;;13.50;8.70;;;;;;;;;;5094445;28;20475;-56
2021/05/12 00:50:16;;;;;;;13.90;8.47;;;;;;;;;;5093734;28;20868;-57
2021/05/12 00:52:50;;;;;;;16.30;9.30;;;;;;;;;;5094524;28;20468;-51
2021/05/12 00:55:20;;;;;;;11.00;8.73;;;;;;;;;;5095045;28;20503;-58
2021/05/12 00:57:48;;;;;;;11.70;8.87;;;;;;;;;;5095254;28;20471;-56
2021/05/12 01:00:18;;;;;;;13.33;8.30;;;;;;;;;;5089159;28;20509;-56
2021/05/12 01:02:45;;;;;;;10.73;8.83;;;;;;;;;;5095630;28;20459;-58
2021/05/12 01:05:14;;;;;;;13.23;9.43;;;;;;;;;;5094899;28;20433;-59
2021/05/12 01:07:42;;;;;;;12.83;9.70;;;;;;;;;;5086304;28;20468;-57
2021/05/12 01:10:09;;;;;;;11.03;8.63;;;;;;;;;;5089812;28;20456;-56
2021/05/12 01:12:56;;;;;;;15.50;9.90;;;;;;;;;;5093812;28;20523;-54
2021/05/12 01:15:23;;;;;;;13.13;9.20;;;;;;;;;;5093103;28;20482;-55
2021/05/12 01:17:50;;;;;;;13.70;10.53;;;;;;;;;;5088305;28;20502;-52
2021/05/12 01:23:22;;;;;;;16.73;10.80;;;;;;;;;;5095658;28;20510;-52
2021/05/12 01:25:49;;;;;;;16.07;9.70;;;;;;;;;;5082619;28;20452;-54
2021/05/12 01:28:34;;;;;;;15.87;10.47;;;;;;;;;;5087214;28;20458;-54
2021/05/12 01:31:03;;;;;;;14.20;9.70;;;;;;;;;;5081372;28;20491;-56
2021/05/12 01:33:30;;;;;;;25.20;11.03;;;;;;;;;;5093872;28;20452;-47
2021/05/12 01:35:59;;;;;;;15.63;9.80;;;;;;;;;;5089722;28;20504;-57
2021/05/12 01:38:27;;;;;;;17.33;11.80;;;;;;;;;;5097841;28;20464;-53
2021/05/12 01:40:56;;;;;;;16.80;11.60;;;;;;;;;;5095272;28;20436;-61
2021/05/12 01:43:42;;;;;;;16.87;11.63;;;;;;;;;;5106159;28;20515;-55
2021/05/12 01:46:09;;;;;;;15.63;11.27;;;;;;;;;;5096332;28;20475;-56
2021/05/12 01:48:36;;;;;;;16.07;11.57;;;;;;;;;;5097320;28;20471;-53
2021/05/12 01:51:05;;;;;;;17.80;11.17;;;;;;;;;;5098569;28;20458;-58
2021/05/12 01:53:33;;;;;;;17.33;11.60;;;;;;;;;;5100081;28;20460;-58
2021/05/12 01:56:00;;;;;;;18.57;10.87;;;;;;;;;;5092002;28;20477;-55
2021/05/12 01:58:30;;;;;;;14.63;11.33;;;;;;;;;;5092226;28;20440;-58
2021/05/12 02:00:59;;;;;;;14.00;10.23;;;;;;;;;;5096141;28;20546;-56
2021/05/12 02:03:26;;;;;;;19.90;10.70;;;;;;;;;;5097504;28;20583;-51
2021/05/12 02:05:56;;;;;;;12.83;10.60;;;;;;;;;;5100188;28;20451;-53
2021/05/12 02:08:23;;;;;;;12.13;10.10;;;;;;;;;;5106364;28;20456;-55
2021/05/12 02:10:53;;;;;;;15.83;11.00;;;;;;;;;;5098162;28;20433;-55
2021/05/12 02:13:30;;;;;;;13.97;10.50;;;;;;;;;;5092650;28;20468;-52
2021/05/12 02:15:57;;;;;;;15.87;10.37;;;;;;;;;;5103868;28;20482;-56
2021/05/12 02:18:24;;;;;;;15.87;10.90;;;;;;;;;;5097699;28;20478;-55
2021/05/12 02:21:22;;;;;;;13.77;9.83;;;;;;;;;;5110302;28;20471;-55
2021/05/12 02:23:49;;;;;;;15.00;10.17;;;;;;;;;;5096166;28;20541;-53
2021/05/12 02:26:17;;;;;;;17.40;11.53;;;;;;;;;;5096466;28;20467;-54
2021/05/12 02:29:01;;;;;;;16.30;9.93;;;;;;;;;;5111223;28;20518;-53
2021/05/12 02:31:28;;;;;;;14.87;9.57;;;;;;;;;;5099895;28;20472;-56
2021/05/12 02:33:55;;;;;;;19.87;10.27;;;;;;;;;;5099404;28;20448;-58
2021/05/12 02:36:28;;;;;;;13.87;9.63;;;;;;;;;;5073977;28;20497;-60
2021/05/12 02:38:55;;;;;;;16.53;9.87;;;;;;;;;;5099036;28;20456;-51
2021/05/12 02:41:27;;;;;;;14.40;10.27;;;;;;;;;;5096602;28;20558;-53
2021/05/12 02:43:54;;;;;;;14.47;8.50;;;;;;;;;;5080795;28;20468;-53
2021/05/12 02:46:21;;;;;;;13.43;9.40;;;;;;;;;;5090144;28;20457;-51
2021/05/12 02:51:52;;;;;;;14.00;10.27;;;;;;;;;;5094965;28;20435;-58
2021/05/12 02:54:19;;;;;;;15.77;9.07;;;;;;;;;;5095289;28;20472;-53
2021/05/12 02:57:06;;;;;;;14.30;9.47;;;;;;;;;;5095334;28;20502;-59
2021/05/12 02:59:33;;;;;;;14.30;8.47;;;;;;;;;;5097811;28;20456;-55
2021/05/12 03:02:00;;;;;;;12.03;9.07;;;;;;;;;;5080443;28;20464;-54
2021/05/12 03:04:27;;;;;;;16.13;8.60;;;;;;;;;;5085797;28;20530;-54
2021/05/12 03:06:55;;;;;;;10.70;8.33;;;;;;;;;;5080504;28;20441;-57
2021/05/12 03:09:23;;;;;;;13.00;7.93;;;;;;;;;;5093199;28;20504;-52
2021/05/12 03:11:50;;;;;;;14.97;8.80;;;;;;;;;;5093954;28;20464;-60
2021/05/12 03:14:17;;;;;;;10.90;7.77;;;;;;;;;;5090057;28;20464;-56
2021/05/12 03:16:46;;;;;;;21.20;9.53;;;;;;;;;;5096982;28;20554;-54
2021/05/12 03:19:13;;;;;;;15.20;8.67;;;;;;;;;;5096185;28;20448;-56
2021/05/12 03:21:40;;;;;;;12.37;7.90;;;;;;;;;;5096576;28;20464;-60
2021/05/12 03:24:23;;;;;;;11.13;6.43;;;;;;;;;;5080541;28;20618;-58
2021/05/12 03:26:54;;;;;;;11.17;8.47;;;;;;;;;;5097755;28;20467;-58
2021/05/12 03:29:21;;;;;;;18.63;8.10;;;;;;;;;;5095566;28;20456;-53
2021/05/12 03:31:48;;;;;;;12.90;7.10;;;;;;;;;;5076467;28;20453;-51
2021/05/12 03:34:15;;;;;;;18.20;8.33;;;;;;;;;;5089749;28;20455;-52
2021/05/12 03:36:50;;;;;;;20.33;8.17;;;;;;;;;;5094930;28;20460;-54
2021/05/12 03:39:17;;;;;;;11.60;7.60;;;;;;;;;;5094483;28;20455;-57
2021/05/12 03:41:44;;;;;;;15.20;7.27;;;;;;;;;;5096386;28;20464;-51
2021/05/12 03:44:33;;;;;;;9.50;7.30;;;;;;;;;;5095375;28;20455;-57
2021/05/12 03:47:00;;;;;;;13.43;7.73;;;;;;;;;;5087810;28;20602;-57
2021/05/12 03:49:27;;;;;;;12.53;8.40;;;;;;;;;;5094745;28;20461;-58
2021/05/12 03:51:59;;;;;;;11.17;7.40;;;;;;;;;;5093864;28;20476;-53
2021/05/12 03:54:27;;;;;;;14.73;7.40;;;;;;;;;;5093582;28;20450;-57
2021/05/12 03:56:53;;;;;;;14.03;8.00;;;;;;;;;;5091825;28;20468;-56
2021/05/12 03:59:28;;;;;;;13.03;7.60;;;;;;;;;;5095372;28;20456;-54
2021/05/12 04:01:56;;;;;;;12.90;7.70;;;;;;;;;;5095029;28;20481;-55
2021/05/12 04:04:25;;;;;;;21.13;8.53;;;;;;;;;;5078128;28;20516;-52
2021/05/12 04:06:52;;;;;;;12.90;6.60;;;;;;;;;;5095511;28;20523;-59
2021/05/12 04:09:19;;;;;;;11.37;6.03;;;;;;;;;;5095126;28;20448;-56
2021/05/12 04:12:00;;;;;;;12.60;6.80;;;;;;;;;;5095412;28;20432;-57
2021/05/12 04:14:28;;;;;;;8.83;6.40;;;;;;;;;;5095002;28;20448;-57
2021/05/12 04:16:54;;;;;;;11.13;6.27;;;;;;;;;;5095236;28;20483;-59
2021/05/12 04:19:30;;;;;;;10.90;6.80;;;;;;;;;;5076857;28;20468;-57
2021/05/12 04:21:57;;;;;;;13.90;8.00;;;;;;;;;;5088119;28;20507;-52
2021/05/12 04:24:25;;;;;;;11.87;6.87;;;;;;;;;;5095278;28;20487;-56
2021/05/12 04:26:56;;;;;;;8.00;6.93;;;;;;;;;;5095304;28;20458;-59
2021/05/12 04:29:23;;;;;;;12.37;7.47;;;;;;;;;;5077768;28;20453;-54
2021/05/12 04:31:51;;;;;;;13.73;7.83;;;;;;;;;;5075161;28;20445;-53
2021/05/12 04:34:24;;;;;;;11.97;7.70;;;;;;;;;;5074998;28;20437;-54
2021/05/12 04:36:56;;;;;;;8.80;6.60;;;;;;;;;;5075817;28;20769;-54
2021/05/12 04:39:23;;;;;;;15.00;8.07;;;;;;;;;;5076930;28;20464;-53
2021/05/12 04:44:54;;;;;;;11.83;7.20;;;;;;;;;;5087406;28;20458;-58
2021/05/12 04:47:21;;;;;;;12.93;6.80;;;;;;;;;;5095133;28;20456;-61
2021/05/12 04:50:01;;;;;;;11.90;7.50;;;;;;;;;;5094558;28;20527;-55
2021/05/12 04:52:29;;;;;;;10.93;7.27;;;;;;;;;;5098971;28;20471;-59
2021/05/12 04:54:56;;;;;;;12.80;7.37;;;;;;;;;;5098524;28;20549;-58
2021/05/12 04:57:29;;;;;;;11.43;6.67;;;;;;;;;;5093767;28;20502;-57
2021/05/12 04:59:56;;;;;;;10.40;7.17;;;;;;;;;;5098600;28;20464;-51
2021/05/12 05:02:23;;;;;;;20.90;8.00;;;;;;;;;;5099355;28;20463;-53
2021/05/12 05:05:10;;;;;;;11.37;8.00;;;;;;;;;;5098183;28;20488;-55
2021/05/12 05:07:37;;;;;;;18.67;8.13;;;;;;;;;;5097941;28;20443;-49
2021/05/12 05:10:05;;;;;;;13.70;8.23;;;;;;;;;;5092874;28;20451;-52
2021/05/12 05:12:43;;;;;;;15.50;8.10;;;;;;;;;;5098194;28;20440;-58
2021/05/12 05:15:18;;;;;;;13.30;8.67;;;;;;;;;;5097494;28;20472;-57
2021/05/12 05:17:45;;;;;;;15.67;7.80;;;;;;;;;;5095957;28;20454;-55
2021/05/12 05:20:12;;;;;;;11.77;6.37;;;;;;;;;;5095019;28;20467;-55
2021/05/12 05:22:40;;;;;;;18.63;9.57;;;;;;;;;;5077379;28;20459;-56
2021/05/12 05:25:17;;;;;;;14.33;8.93;;;;;;;;;;5094361;28;20452;-50
2021/05/12 05:27:45;;;;;;;20.93;9.70;;;;;;;;;;5096054;28;20463;-52
2021/05/12 05:30:12;;;;;;;12.43;8.43;;;;;;;;;;5097681;28;20458;-55
2021/05/12 05:33:03;;;;;;;12.57;9.50;;;;;;;;;;5092028;28;20499;-61
2021/05/12 05:35:30;;;;;;;15.93;8.97;;;;;;;;;;5095929;28;20567;-59
2021/05/12 05:37:58;;;;;;;9.83;7.87;;;;;;;;;;5097250;28;20455;-55
2021/05/12 05:40:49;;;;;;;14.90;8.40;;;;;;;;;;5091007;28;20478;-60
2021/05/12 05:43:17;;;;;;;15.37;9.30;;;;;;;;;;5096634;28;20460;-58
2021/05/12 05:45:47;;;;;;;12.20;7.43;;;;;;;;;;5094909;28;20455;-57
2021/05/12 05:48:38;;;;;;;18.23;9.00;;;;;;;;;;5096618;28;20470;-60
2021/05/12 05:51:07;;;;;;;19.80;12.90;;;;;;;;;;5090880;28;20478;-60
2021/05/12 05:53:39;;;;;;;15.87;7.63;;;;;;;;;;5097193;28;20455;-58
2021/05/12 05:56:12;;;;;;;13.20;7.73;;;;;;;;;;5087312;28;20559;-61
2021/05/12 05:58:53;;;;;;;15.67;8.10;;;;;;;;;;5092606;28;20450;-57
2021/05/12 06:01:37;;;;;;;11.40;7.30;;;;;;;;;;5096441;28;20520;-58
2021/05/12 06:04:06;;;;;;;15.77;8.83;;;;;;;;;;5094181;28;20483;-56
2021/05/12 06:06:36;;;;;;;12.13;6.97;;;;;;;;;;5096584;28;20455;-55
2021/05/12 06:09:23;;;;;;;10.87;7.03;;;;;;;;;;5096087;28;20435;-55
2021/05/12 06:11:53;;;;;;;12.37;6.33;;;;;;;;;;5096870;28;20455;-59
2021/05/12 06:14:20;;;;;;;14.50;6.57;;;;;;;;;;5092135;28;20451;-54
2021/05/12 06:17:04;;;;;;;12.13;7.40;;;;;;;;;;5087501;28;20549;-54
2021/05/12 06:19:39;;;;;;;11.83;6.70;;;;;;;;;;5085607;28;20444;-51
2021/05/12 06:22:06;;;;;;;9.63;5.90;;;;;;;;;;5095467;28;20439;-58
2021/05/12 06:24:38;;;;;;;12.00;5.40;;;;;;;;;;5095094;28;20492;-60
2021/05/12 06:27:06;;;;;;;10.30;5.40;;;;;;;;;;5095085;28;20468;-58
2021/05/12 06:29:34;;;;;;;13.50;6.60;;;;;;;;;;5095381;28;20452;-59
2021/05/12 06:32:19;;;;;;;9.17;5.53;;;;;;;;;;5096240;28;20487;-60
2021/05/12 06:34:47;;;;;;;10.00;5.40;;;;;;;;;;5078208;28;20457;-59
2021/05/12 06:37:13;;;;;;;9.47;5.90;;;;;;;;;;5096262;28;20456;-56
2021/05/12 06:39:42;;;;;;;13.60;6.13;;;;;;;;;;5095704;28;20677;-54
2021/05/12 06:42:13;;;;;;;12.40;5.60;;;;;;;;;;5096211;28;20479;-55
2021/05/12 06:44:41;;;;;;;7.40;5.53;;;;;;;;;;5095656;28;20432;-60
2021/05/12 06:47:08;;;;;;;9.80;5.30;;;;;;;;;;5094791;28;20460;-55
2021/05/12 06:49:36;;;;;;;19.20;5.50;;;;;;;;;;5077058;28;20479;-57
2021/05/12 06:52:08;;;;;;;10.70;4.90;;;;;;;;;;5096329;28;20482;-60
2021/05/12 06:54:37;;;;;;;12.83;4.97;;;;;;;;;;5086245;28;20468;-54
2021/05/12 06:57:07;;;;;;;9.80;4.83;;;;;;;;;;5089722;28;20476;-60
2021/05/12 06:59:35;;;;;;;12.37;4.80;;;;;;;;;;5093840;28;20467;-57
2021/05/12 07:02:02;;;;;;;6.87;4.00;;;;;;;;;;5095874;28;20458;-60
2021/05/12 07:04:29;;;;;;;8.70;4.47;;;;;;;;;;5094868;28;20499;-59
2021/05/12 07:10:01;;;;;;;7.20;4.37;;;;;;;;;;5100172;28;20534;-59
2021/05/12 07:12:29;;;;;;;10.83;5.03;;;;;;;;;;5101062;28;20510;-57
2021/05/12 07:15:04;;;;;;;8.70;5.10;;;;;;;;;;5093408;28;20479;-59
2021/05/12 07:17:30;;;;;;;6.80;3.93;;;;;;;;;;5086970;28;20468;-52
2021/05/12 07:19:59;;;;;;;9.73;4.17;;;;;;;;;;5094918;28;20432;-59
2021/05/12 07:22:26;;;;;;;9.50;4.03;;;;;;;;;;5086943;28;20650;-57
2021/05/12 07:24:53;;;;;;;8.40;4.77;;;;;;;;;;5095649;28;20468;-59
2021/05/12 07:27:22;;;;;;;11.63;5.60;;;;;;;;;;5093780;28;20482;-56
2021/05/12 07:30:07;;;;;;;12.47;4.97;;;;;;;;;;5095176;28;20471;-59
2021/05/12 07:32:35;;;;;;;9.90;4.70;;;;;;;;;;5093823;28;20456;-56
2021/05/12 07:35:03;;;;;;;10.23;5.37;;;;;;;;;;5085844;28;20441;-58
2021/05/12 07:37:31;;;;;;;8.80;4.50;;;;;;;;;;5080632;28;20469;-54
2021/05/12 07:40:00;;;;;;;11.90;4.60;;;;;;;;;;5090347;28;20464;-54
2021/05/12 07:42:56;;;;;;;15.10;5.43;;;;;;;;;;5093155;28;20532;-55
2021/05/12 07:45:23;;;;;;;14.33;7.57;;;;;;;;;;5092709;28;20477;-57
2021/05/12 07:47:51;;;;;;;9.57;5.67;;;;;;;;;;5085851;28;20444;-51
2021/05/12 07:50:22;;;;;;;10.00;5.70;;;;;;;;;;5093661;28;20510;-54
2021/05/12 07:52:48;;;;;;;9.47;5.57;;;;;;;;;;5092885;28;20479;-56
2021/05/12 07:55:15;;;;;;;11.50;5.23;;;;;;;;;;5093425;28;20480;-57
2021/05/12 07:57:55;;;;;;;9.63;5.60;;;;;;;;;;5092523;28;20762;-57
2021/05/12 08:00:24;;;;;;;9.70;4.80;;;;;;;;;;5092607;28;20455;-57
2021/05/12 08:02:51;;;;;;;9.13;5.37;;;;;;;;;;5083469;28;20472;-56
2021/05/12 08:08:32;;;;;;;11.27;5.03;;;;;;;;;;5093595;28;20481;-54
2021/05/12 08:10:59;;;;;;;16.37;8.50;;;;;;;;;;5094577;28;20536;-56
2021/05/12 08:13:32;;;;;;;12.00;4.77;;;;;;;;;;5094876;28;20455;-50
2021/05/12 08:15:59;;;;;;;15.27;5.00;;;;;;;;;;5093361;28;20496;-57
2021/05/12 08:18:27;;;;;;;8.40;4.90;;;;;;;;;;5095420;28;20459;-55
2021/05/12 08:21:03;;;;;;;11.13;5.20;;;;;;;;;;5095046;28;20531;-58
2021/05/12 08:23:30;;;;;;;9.87;4.80;;;;;;;;;;5093705;28;20459;-54
2021/05/12 08:25:57;;;;;;;9.03;5.93;;;;;;;;;;5095132;28;20436;-57
2021/05/12 08:28:24;;;;;;;10.20;6.20;;;;;;;;;;5094514;28;20452;-56
2021/05/12 08:30:51;;;;;;;7.60;4.93;;;;;;;;;;5074780;28;20604;-59
2021/05/12 08:33:19;;;;;;;12.10;6.30;;;;;;;;;;5075186;28;20468;-53
2021/05/12 08:38:51;;;;;;;7.83;5.77;;;;;;;;;;5083920;28;20458;-56
2021/05/12 08:41:19;;;;;;;10.23;5.67;;;;;;;;;;5082236;28;20441;-56
2021/05/12 08:44:15;;;;;;;14.17;6.40;;;;;;;;;;5093068;28;20488;-55
2021/05/12 08:46:42;;;;;;;8.30;5.60;;;;;;;;;;5092778;28;20459;-56
2021/05/12 08:49:09;;;;;;;10.63;6.60;;;;;;;;;;5080233;28;20760;-51
2021/05/12 08:51:57;;;;;;;12.70;6.80;;;;;;;;;;5092062;28;20483;-52
2021/05/12 08:54:26;;;;;;;8.07;6.20;;;;;;;;;;5090150;28;20527;-56
2021/05/12 08:56:52;;;;;;;7.40;5.87;;;;;;;;;;5087282;28;20801;-61
2021/05/12 08:59:19;;;;;;;10.40;6.97;;;;;;;;;;5092489;28;20471;-46
2021/05/12 09:01:47;;;;;;;16.00;8.33;;;;;;;;;;5092977;28;20503;-59
2021/05/12 09:04:16;;;;;;;11.77;7.60;;;;;;;;;;5092350;28;20464;-57
2021/05/12 09:06:49;;;;;;;11.50;7.77;;;;;;;;;;5082638;28;20433;-58
2021/05/12 09:09:16;;;;;;;14.20;8.90;;;;;;;;;;5092024;28;20479;-54
2021/05/12 09:11:44;;;;;;;12.50;7.40;;;;;;;;;;5091750;28;20432;-58
2021/05/12 09:14:26;;;;;;;13.63;9.20;;;;;;;;;;5092633;28;20492;-54
2021/05/12 09:16:52;;;;;;;16.40;9.73;;;;;;;;;;5092314;28;20551;-57
2021/05/12 09:19:23;;;;;;;14.80;9.40;;;;;;;;;;5087447;28;20435;-60
2021/05/12 09:21:58;;;;;;;14.50;9.13;;;;;;;;;;5092106;28;20441;-56
2021/05/12 09:24:32;;;;;;;18.30;7.30;;;;;;;;;;5092827;28;20460;-56
2021/05/12 09:27:02;;;;;;;11.47;8.30;;;;;;;;;;5083004;28;20501;-60
2021/05/12 09:29:31;;;;;;;9.30;7.50;;;;;;;;;;5092393;28;20452;-59
2021/05/12 09:32:05;;;;;;;13.53;9.40;;;;;;;;;;5091826;28;20456;-55
2021/05/12 09:34:46;;;;;;;12.30;8.27;;;;;;;;;;5092212;28;20428;-58
2021/05/12 09:39:55;;;;;;;11.20;9.27;;;;;;;;;;5131394;27;20537;-56
2021/05/12 09:42:22;;;;;;;10.87;6.93;;;;;;;;;;5131492;28;20829;-61
2021/05/12 09:45:18;;;;;;;13.63;7.80;;;;;;;;;;5125752;28;20446;-57
2021/05/12 09:48:06;;;;;;;12.77;6.77;;;;;;;;;;5079196;28;20574;-59
2021/05/12 09:50:44;;;;;;;8.47;6.83;;;;;;;;;;5131059;28;20514;-57
2021/05/12 09:53:14;;;;;;;10.80;6.57;;;;;;;;;;5131604;28;20458;-56
2021/05/12 09:55:45;;;;;;;10.70;6.60;;;;;;;;;;5128285;28;20454;-55
2021/05/12 09:58:13;;;;;;;7.60;6.37;;;;;;;;;;5125829;28;20467;-56
2021/05/12 10:00:40;;;;;;;10.70;6.23;;;;;;;;;;5117988;28;20503;-58
2021/05/12 10:03:24;;;;;;;9.93;6.43;;;;;;;;;;5120135;28;20450;-56
2021/05/12 10:05:57;;;;;;;11.27;5.73;;;;;;;;;;5121530;28;20434;-56
2021/05/12 10:08:32;;;;;;;10.00;5.50;;;;;;;;;;5114643;28;20451;-56
2021/05/12 10:11:11;;;;;;;9.20;5.53;;;;;;;;;;5108885;28;20459;-50
2021/05/12 10:13:38;;;;;;;9.53;7.30;;;;;;;;;;5122219;28;20438;-56
2021/05/12 10:16:12;;;;;;;12.50;7.27;;;;;;;;;;5128273;28;20548;-58
2021/05/12 10:18:39;;;;;;;12.80;7.80;;;;;;;;;;5127130;28;20486;-56
2021/05/12 10:21:06;;;;;;;17.57;8.83;;;;;;;;;;5120649;28;20446;-54
2021/05/12 10:23:52;;;;;;;11.63;7.60;;;;;;;;;;5116152;28;20493;-52
2021/05/12 10:26:20;;;;;;;10.43;7.60;;;;;;;;;;5119442;28;20459;-58
2021/05/12 10:28:49;;;;;;;11.20;7.40;;;;;;;;;;5127521;28;20434;-57
2021/05/12 10:31:16;;;;;;;14.53;7.57;;;;;;;;;;5128117;28;20531;-58
2021/05/12 10:33:46;;;;;;;14.43;7.37;;;;;;;;;;5127865;28;20442;-53
2021/05/12 10:36:24;;;;;;;11.53;9.27;;;;;;;;;;5126628;28;20471;-51
2021/05/12 10:38:52;;;;;;;11.47;8.60;;;;;;;;;;5126646;28;20494;-58
2021/05/12 10:41:43;;;;;;;17.43;9.20;;;;;;;;;;5127783;28;20454;-60
2021/05/12 10:44:15;;;;;;;9.70;8.13;;;;;;;;;;5129448;28;20485;-62
2021/05/12 10:47:05;;;;;;;14.30;9.57;;;;;;;;;;5130181;28;20443;-58
2021/05/12 10:49:32;;;;;;;7.63;6.20;;;;;;;;;;5127603;28;20479;-57
2021/05/12 10:54:48;;;;;;;9.03;6.20;;;;;;;;;;5113259;28;20431;-61
2021/05/12 10:57:29;;;;;;;9.90;7.50;;;;;;;;;;5117007;28;20451;-53
2021/05/12 11:00:08;;;;;;;12.60;8.10;;;;;;;;;;5116310;28;20443;-58
2021/05/12 11:03:04;;;;;;;9.13;7.43;;;;;;;;;;5117119;28;20470;-60
2021/05/12 11:06:03;;;;;;;12.00;7.87;;;;;;;;;;5113748;28;20488;-57
2021/05/12 11:08:33;;;;;;;8.60;7.10;;;;;;;;;;5116081;28;20439;-61
2021/05/12 11:11:00;;;;;;;8.80;5.97;;;;;;;;;;5117317;28;20439;-56
2021/05/12 11:13:34;;;;;;;12.77;6.33;;;;;;;;;;5111676;28;20486;-55
2021/05/12 11:16:07;;;;;;;9.50;5.80;;;;;;;;;;5125851;28;20482;-52
2021/05/12 11:18:53;;;;;;;10.97;5.97;;;;;;;;;;5137894;28;20486;-54
2021/05/12 11:24:28;;;;;;;7.70;5.67;;;;;;;;;;5115926;28;20465;-57
2021/05/12 11:27:24;;;;;;;11.47;5.37;;;;;;;;;;5117095;28;20459;-60
2021/05/12 11:32:38;;;;;;;8.03;6.03;;;;;;;;;;5111775;28;20572;-55
2021/05/12 11:35:12;;;;;;;9.40;7.00;;;;;;;;;;5123184;28;20454;-55
2021/05/12 11:37:44;;;;;;;18.67;8.97;;;;;;;;;;5107808;28;20430;-59
2021/05/12 11:40:14;;;;;;;11.17;7.50;;;;;;;;;;5114118;28;20543;-56
2021/05/12 11:42:57;;;;;;;13.43;7.70;;;;;;;;;;5118038;28;20412;-56
2021/05/12 11:45:25;;;;;;;13.50;9.17;;;;;;;;;;5117758;28;20455;-57
2021/05/12 11:48:07;;;;;;;15.27;8.47;;;;;;;;;;5119763;28;20448;-56
2021/05/12 11:51:05;;;;;;;14.73;8.00;;;;;;;;;;5113335;28;20460;-58
2021/05/12 11:53:36;;;;;;;9.03;6.60;;;;;;;;;;5114848;28;20451;-57
2021/05/12 11:56:04;;;;;;;7.87;6.50;;;;;;;;;;5117242;28;20447;-59
2021/05/12 11:58:33;;;;;;;8.67;5.83;;;;;;;;;;5117146;28;20467;-54
2021/05/12 12:01:09;;;;;;;15.13;5.07;;;;;;;;;;5128895;28;20485;-61
2021/05/12 12:03:43;;;;;;;10.90;4.60;;;;;;;;;;5136478;28;20454;-56
2021/05/12 12:06:15;;;;;;;9.80;4.10;;;;;;;;;;5137453;28;20458;-57
2021/05/12 12:08:47;;;;;;;11.13;5.40;;;;;;;;;;5136380;28;20439;-56
2021/05/12 12:11:55;;;;;;;8.60;4.30;;;;;;;;;;5132068;28;20431;-53
2021/05/12 12:14:37;;;;;;;8.50;4.70;;;;;;;;;;5122432;28;20427;-55
2021/05/12 12:17:11;;;;;;;12.23;5.40;;;;;;;;;;5137585;28;20489;-55
2021/05/12 12:19:39;;;;;;;8.83;6.27;;;;;;;;;;5137186;28;20489;-57
2021/05/12 12:22:09;;;;;;;10.40;6.30;;;;;;;;;;5137165;28;20561;-60
2021/05/12 12:24:37;;;;;;;9.90;7.63;;;;;;;;;;5136776;28;20518;-59
2021/05/12 12:27:05;;;;;;;12.73;4.70;;;;;;;;;;5136572;28;20439;-58
2021/05/12 12:29:33;;;;;;;11.00;6.30;;;;;;;;;;5126129;28;20482;-59
2021/05/12 12:32:02;;;;;;;6.97;5.50;;;;;;;;;;5130711;28;20498;-55
2021/05/12 12:34:30;;;;;;;9.23;6.53;;;;;;;;;;5122590;28;20462;-59
2021/05/12 12:37:17;;;;;;;10.00;6.23;;;;;;;;;;5129333;28;20485;-55
2021/05/12 12:39:55;;;;;;;14.40;6.20;;;;;;;;;;5127817;28;20517;-60
2021/05/12 12:42:28;;;;;;;11.33;6.23;;;;;;;;;;5125676;28;20477;-56
2021/05/12 12:44:56;;;;;;;9.30;6.47;;;;;;;;;;5132433;28;20518;-60
2021/05/12 12:47:23;;;;;;;9.23;6.43;;;;;;;;;;5129056;28;20550;-56
2021/05/12 12:49:54;;;;;;;10.80;5.83;;;;;;;;;;5135324;28;20434;-54
2021/05/12 12:52:52;;;;;;;8.00;4.70;;;;;;;;;;5131233;28;20450;-59
2021/05/12 12:55:20;;;;;;;8.77;4.80;;;;;;;;;;5133112;28;20533;-57
2021/05/12 12:57:48;;;;;;;10.77;4.80;;;;;;;;;;5134935;28;20477;-57
2021/05/12 13:00:21;;;;;;;6.90;5.07;;;;;;;;;;5133851;28;20470;-58
2021/05/12 13:02:59;;;;;;;4.90;3.40;;;;;;;;;;5131171;28;20492;-54
2021/05/12 13:05:34;;;;;;;3.70;2.10;;;;;;;;;;5115049;28;20439;-57
2021/05/12 13:08:15;;;;;;;6.67;3.00;;;;;;;;;;5135109;28;20464;-57
2021/05/12 13:10:45;;;;;;;6.80;2.50;;;;;;;;;;5134671;28;20461;-60
2021/05/12 13:13:22;;;;;;;11.37;2.80;;;;;;;;;;5122351;28;20446;-56
2021/05/12 13:16:17;;;;;;;7.53;3.23;;;;;;;;;;5135143;28;20503;-59
2021/05/12 13:18:49;;;;;;;13.67;2.93;;;;;;;;;;5133565;28;20500;-52
2021/05/12 13:21:20;;;;;;;5.00;3.37;;;;;;;;;;5129830;28;20451;-53
2021/05/12 13:24:20;;;;;;;5.17;3.83;;;;;;;;;;5132374;28;20439;-55
2021/05/12 13:26:56;;;;;;;5.67;3.27;;;;;;;;;;5128003;28;20461;-60
2021/05/12 13:29:28;;;;;;;10.53;3.70;;;;;;;;;;5133685;28;20442;-51
2021/05/12 13:31:56;;;;;;;5.80;3.23;;;;;;;;;;5134010;28;20454;-58
2021/05/12 13:34:27;;;;;;;6.43;2.73;;;;;;;;;;5126192;28;20461;-55
2021/05/12 13:36:58;;;;;;;5.47;3.33;;;;;;;;;;5122859;28;20465;-56
2021/05/12 13:39:27;;;;;;;6.97;2.97;;;;;;;;;;5119979;28;20486;-54
2021/05/12 13:41:54;;;;;;;5.70;3.30;;;;;;;;;;5127527;28;20447;-54
2021/05/12 13:44:39;;;;;;;5.90;3.53;;;;;;;;;;5132468;28;20435;-60
2021/05/12 13:47:08;;;;;;;7.23;3.03;;;;;;;;;;5125625;28;20521;-60
2021/05/12 13:49:35;;;;;;;4.30;2.70;;;;;;;;;;5115845;28;20505;-56
2021/05/12 13:52:09;;;;;;;4.90;3.07;;;;;;;;;;5133037;28;20735;-57
2021/05/12 13:54:42;;;;;;;6.60;2.50;;;;;;;;;;5112617;28;20490;-55
2021/05/12 13:57:15;;;;;;;4.83;1.70;;;;;;;;;;5124969;28;21230;-58
2021/05/12 14:00:02;;;;;;;5.63;2.80;;;;;;;;;;5130755;28;20466;-57
2021/05/12 14:02:38;;;;;;;4.27;2.67;;;;;;;;;;5113513;28;20447;-55
2021/05/12 14:05:12;;;;;;;6.60;2.70;;;;;;;;;;5097110;28;20447;-57
2021/05/12 14:07:41;;;;;;;6.37;3.57;;;;;;;;;;5092813;28;20516;-53
2021/05/12 14:10:13;;;;;;;8.50;3.80;;;;;;;;;;5094013;28;20455;-50
2021/05/12 14:13:01;;;;;;;5.60;3.50;;;;;;;;;;5103578;28;20459;-58
2021/05/12 14:15:48;;;;;;;7.40;3.53;;;;;;;;;;5105316;28;20474;-54
2021/05/12 14:18:17;;;;;;;5.90;2.70;;;;;;;;;;5111321;28;20497;-52
2021/05/12 14:20:43;;;;;;;7.70;3.67;;;;;;;;;;5110004;28;20479;-54
2021/05/12 14:23:10;;;;;;;5.30;2.77;;;;;;;;;;5113318;28;20435;-58
2021/05/12 14:28:52;;;;;;;5.13;2.77;;;;;;;;;;5094072;28;20456;-62
2021/05/12 14:31:19;;;;;;;5.17;2.60;;;;;;;;;;5102863;28;20464;-52
2021/05/12 14:33:47;;;;;;;6.10;2.33;;;;;;;;;;5115718;28;20462;-60
2021/05/12 14:36:14;;;;;;;10.97;4.23;;;;;;;;;;5117078;28;20455;-54
2021/05/12 14:38:44;;;;;;;4.00;2.37;;;;;;;;;;5117198;28;20467;-56
2021/05/12 14:41:12;;;;;;;8.43;1.87;;;;;;;;;;5113509;28;20474;-58
2021/05/12 14:43:40;;;;;;;7.80;3.07;;;;;;;;;;5116667;28;20488;-56
2021/05/12 14:46:32;;;;;;;5.70;2.80;;;;;;;;;;5118726;28;20480;-52
2021/05/12 14:49:09;;;;;;;7.30;2.83;;;;;;;;;;5108829;28;20476;-55
2021/05/12 14:51:38;;;;;;;6.43;3.33;;;;;;;;;;5087105;28;20466;-55
2021/05/12 14:54:12;;;;;;;4.10;2.57;;;;;;;;;;5116283;28;20488;-56
2021/05/12 14:56:50;;;;;;;11.00;3.53;;;;;;;;;;5115548;28;20463;-53
2021/05/12 15:02:35;;;;;;;9.70;3.20;;;;;;;;;;5134048;28;20558;-56
2021/05/12 15:08:11;;;;;;;6.63;2.87;;;;;;;;;;5120755;28;20467;-53
2021/05/12 15:11:01;;;;;;;5.80;2.10;;;;;;;;;;5137996;27;20477;-60
2021/05/12 15:13:29;;;;;;;7.13;2.57;;;;;;;;;;5137725;28;20450;-58
2021/05/12 15:15:57;;;;;;;4.87;2.40;;;;;;;;;;5136432;28;20522;-56
2021/05/12 15:18:43;;;;;;;6.40;2.50;;;;;;;;;;5137812;28;20474;-59
2021/05/12 15:21:16;;;;;;;7.60;2.10;;;;;;;;;;5131536;28;20474;-55
2021/05/12 15:23:42;;;;;;;4.10;1.73;;;;;;;;;;5117391;28;20443;-57
2021/05/12 15:26:41;;;;;;;5.20;1.70;;;;;;;;;;5117328;28;20454;-57
2021/05/12 15:29:08;;;;;;;8.03;2.53;;;;;;;;;;5125720;28;20522;-58
2021/05/12 15:31:36;;;;;;;11.13;2.00;;;;;;;;;;5121728;28;20446;-57
2021/05/12 15:34:06;;;;;;;3.93;2.00;;;;;;;;;;5117121;28;20501;-51
2021/05/12 15:36:36;;;;;;;5.33;1.73;;;;;;;;;;5138166;28;20450;-56
2021/05/12 15:39:04;;;;;;;4.13;1.90;;;;;;;;;;5137798;27;20485;-60
2021/05/12 15:41:33;;;;;;;6.50;2.43;;;;;;;;;;5137799;28;20454;-58
2021/05/12 15:44:00;;;;;;;3.50;1.70;;;;;;;;;;5126919;28;20501;-61
2021/05/12 15:46:27;;;;;;;4.00;1.57;;;;;;;;;;5116050;28;20489;-60